Wing, Alabama
Current Conditions -  °F | °C
As of 4:58 PM on Saturday 25 Oct 2014 (Local Time) from K0J4 Reporting Station
Clear Clear  
Wind Chill: 76°   Ceiling: Unl
Heat Index: 76°   Visibility: 10mi
Dew Point: 50°   Wind: 3mph
Humidity: 40%   Direction: 360°N
Pressure: 30.04"   Gusts: NA
Location:  31.03°N, 86.61°W
Report Text: K0J4 252158Z AUTO 36003KT 10SM CLR 24/10 A3004 RMK AO2 SLP171 T02440100 $
Loading
Personal Weather Stations






























Interactive Weather Map
Tropical Storm Tracking
New forecast layout! Learn more

10-Day Weather Forecast

Advertisements
Track Severe Weather on mobile